createdAt,value
2018-07-22T00:00:53.959Z,99.90
2018-07-22T00:03:21.980Z,99.90
2018-07-22T00:05:49.945Z,99.90
2018-07-22T00:10:45.858Z,99.90
2018-07-22T00:13:13.842Z,99.90
2018-07-22T00:15:41.803Z,99.90
2018-07-22T00:18:09.842Z,99.90
2018-07-22T00:20:37.815Z,99.90
2018-07-22T00:23:05.859Z,99.90
2018-07-22T00:25:33.815Z,99.90
2018-07-22T00:28:01.765Z,99.90
2018-07-22T00:30:29.761Z,99.90
2018-07-22T00:32:57.736Z,99.90
2018-07-22T00:35:25.714Z,99.90
2018-07-22T00:37:53.630Z,99.90
2018-07-22T00:42:49.542Z,99.90
2018-07-22T00:45:17.474Z,99.90
2018-07-22T00:47:45.471Z,99.90
2018-07-22T00:50:13.437Z,99.90
2018-07-22T00:52:41.450Z,99.90
2018-07-22T00:55:09.370Z,99.90
2018-07-22T00:57:37.289Z,99.90
2018-07-22T01:00:06.117Z,99.90
2018-07-22T01:02:34.063Z,99.90
2018-07-22T01:05:02.083Z,99.90
2018-07-22T01:09:58.084Z,99.90
2018-07-22T01:12:26.033Z,99.90
2018-07-22T01:14:53.997Z,99.90
2018-07-22T01:17:22.065Z,99.90
2018-07-22T01:19:50.023Z,99.90
2018-07-22T01:22:18.001Z,99.90
2018-07-22T01:24:45.945Z,99.90
2018-07-22T01:29:41.865Z,99.90
2018-07-22T01:32:09.882Z,99.90
2018-07-22T01:34:37.802Z,99.90
2018-07-22T01:39:33.704Z,99.90
2018-07-22T01:42:01.697Z,99.90
2018-07-22T01:44:29.678Z,99.90
2018-07-22T01:49:25.559Z,99.90
2018-07-22T01:51:53.537Z,99.90
2018-07-22T01:54:21.469Z,99.90
2018-07-22T01:56:49.443Z,99.90
2018-07-22T01:59:17.387Z,99.90
2018-07-22T02:04:13.294Z,99.90
2018-07-22T02:06:41.272Z,99.90
2018-07-22T02:09:10.329Z,99.90
2018-07-22T02:11:38.298Z,99.90
2018-07-22T02:14:06.273Z,99.90
2018-07-22T02:16:34.210Z,99.90
2018-07-22T02:19:02.266Z,99.90
2018-07-22T02:21:30.232Z,99.90
2018-07-22T02:26:26.143Z,99.90
2018-07-22T02:28:54.151Z,99.90
2018-07-22T02:31:22.119Z,99.90
2018-07-22T02:33:50.070Z,99.90
2018-07-22T02:36:18.076Z,99.90
2018-07-22T02:38:46.043Z,99.90
2018-07-22T02:41:14.103Z,99.90
2018-07-22T02:43:42.061Z,99.90
2018-07-22T02:46:10.019Z,99.90
2018-07-22T02:51:06.162Z,99.90
2018-07-22T02:53:34.140Z,99.90
2018-07-22T02:56:02.192Z,99.90
2018-07-22T03:00:58.197Z,99.90
2018-07-22T03:03:26.228Z,99.90
2018-07-22T03:05:54.189Z,99.90
2018-07-22T03:08:22.143Z,99.90
2018-07-22T03:10:50.198Z,99.90
2018-07-22T03:15:46.266Z,99.90
2018-07-22T03:18:14.267Z,99.90
2018-07-22T03:20:42.346Z,99.90
2018-07-22T03:23:10.360Z,99.90
2018-07-22T03:28:06.701Z,99.90
2018-07-22T03:30:35.038Z,99.90
2018-07-22T03:33:03.106Z,99.90
2018-07-22T03:35:31.132Z,99.90
2018-07-22T03:37:59.124Z,99.90
2018-07-22T03:40:27.090Z,99.90
2018-07-22T03:42:55.073Z,99.90
2018-07-22T03:45:23.120Z,99.90
2018-07-22T03:47:51.116Z,99.90
2018-07-22T03:50:19.153Z,99.90
2018-07-22T03:52:47.143Z,99.90
2018-07-22T03:55:15.141Z,99.90
2018-07-22T03:57:43.097Z,99.90
2018-07-22T04:00:11.104Z,99.90
2018-07-22T04:07:35.114Z,99.90
2018-07-22T04:10:03.069Z,99.90
2018-07-22T04:14:59.006Z,99.90
2018-07-22T04:17:26.952Z,99.90
2018-07-22T04:19:54.975Z,99.90
2018-07-22T04:22:22.986Z,99.90
2018-07-22T04:24:50.993Z,99.90
2018-07-22T04:29:46.999Z,99.90
2018-07-22T04:32:15.049Z,99.90
2018-07-22T04:34:43.051Z,99.90
2018-07-22T04:39:39.042Z,99.90
2018-07-22T04:42:06.992Z,99.90
2018-07-22T04:44:35.024Z,99.90
2018-07-22T04:47:03.023Z,99.90
2018-07-22T04:49:31.093Z,99.90
2018-07-22T04:51:59.062Z,99.90
2018-07-22T04:54:27.025Z,99.90
2018-07-22T04:56:55.053Z,99.90
2018-07-22T04:59:23.003Z,99.90
2018-07-22T05:01:51.016Z,99.90
2018-07-22T05:04:18.996Z,99.90
2018-07-22T05:06:46.981Z,99.90
2018-07-22T05:09:14.970Z,99.90
2018-07-22T05:11:42.988Z,99.90
2018-07-22T05:16:38.936Z,99.90
2018-07-22T05:21:35.074Z,99.90
2018-07-22T05:26:31.088Z,99.90
2018-07-22T05:28:59.097Z,99.90
2018-07-22T05:31:27.060Z,99.90
2018-07-22T05:33:55.064Z,99.90
2018-07-22T05:36:23.547Z,99.90
2018-07-22T05:38:51.617Z,99.90
2018-07-22T05:41:19.603Z,99.90
2018-07-22T05:43:47.598Z,99.90
2018-07-22T05:51:11.499Z,99.90
2018-07-22T05:53:39.522Z,99.90
2018-07-22T05:56:07.461Z,99.90
2018-07-22T05:58:35.568Z,99.90
2018-07-22T06:01:03.522Z,99.90
2018-07-22T06:03:31.589Z,99.90
2018-07-22T06:05:59.555Z,99.90
2018-07-22T06:08:27.502Z,99.90
2018-07-22T06:10:55.536Z,99.90
2018-07-22T06:15:51.617Z,99.90
2018-07-22T06:18:19.597Z,99.90
2018-07-22T06:20:47.541Z,99.90
2018-07-22T06:23:15.582Z,99.90
2018-07-22T06:25:43.576Z,99.90
2018-07-22T06:28:11.612Z,99.90
2018-07-22T06:30:39.610Z,99.90
2018-07-22T06:35:35.577Z,99.90
2018-07-22T06:38:03.558Z,99.90
2018-07-22T06:40:31.560Z,99.90
2018-07-22T06:42:59.538Z,99.90
2018-07-22T06:45:27.501Z,99.90
2018-07-22T06:47:55.573Z,99.90
2018-07-22T06:50:23.520Z,99.90
2018-07-22T06:52:51.516Z,99.90
2018-07-22T06:57:47.428Z,99.90
2018-07-22T07:00:15.414Z,99.90
2018-07-22T07:05:11.397Z,99.90
2018-07-22T07:10:07.295Z,99.90
2018-07-22T07:12:35.287Z,99.90
2018-07-22T07:15:03.695Z,99.90
2018-07-22T07:17:31.725Z,99.90
2018-07-22T07:19:59.736Z,99.90
2018-07-22T07:22:27.733Z,99.90
2018-07-22T07:27:23.702Z,99.90
2018-07-22T07:29:51.693Z,99.90
2018-07-22T07:32:19.719Z,99.90
2018-07-22T07:37:15.660Z,99.90
2018-07-22T07:39:43.747Z,99.90
2018-07-22T07:42:11.743Z,99.90
2018-07-22T07:44:39.711Z,99.90
2018-07-22T07:47:07.681Z,99.90
2018-07-22T07:49:35.661Z,99.90
2018-07-22T07:52:03.689Z,99.90
2018-07-22T07:54:31.653Z,99.90
2018-07-22T07:59:27.762Z,99.90
2018-07-22T08:01:55.729Z,99.90
2018-07-22T08:04:23.712Z,99.90
2018-07-22T08:09:19.633Z,99.90
2018-07-22T08:11:47.632Z,99.90
2018-07-22T08:14:15.613Z,99.90
2018-07-22T08:16:43.563Z,99.90
2018-07-22T08:21:39.645Z,99.90
2018-07-22T08:24:07.520Z,99.90
2018-07-22T08:26:35.579Z,99.90
2018-07-22T08:29:32.880Z,99.90
2018-07-22T08:34:29.798Z,99.90
2018-07-22T08:36:57.898Z,99.90
2018-07-22T08:39:27.173Z,99.90
2018-07-22T08:41:56.087Z,99.90
2018-07-22T08:44:24.187Z,99.90
2018-07-22T08:46:52.148Z,99.90
2018-07-22T08:51:48.234Z,99.90
2018-07-22T08:54:16.209Z,99.90
2018-07-22T08:56:44.229Z,99.90
2018-07-22T08:59:12.201Z,99.90
2018-07-22T09:01:40.209Z,99.90
2018-07-22T09:04:08.181Z,99.90
2018-07-22T09:06:36.191Z,99.90
2018-07-22T09:09:07.954Z,99.90
2018-07-22T09:11:36.028Z,99.90
2018-07-22T09:14:04.582Z,99.90
2018-07-22T09:16:32.610Z,99.90
2018-07-22T09:19:00.788Z,99.90
2018-07-22T09:21:28.750Z,99.90
2018-07-22T09:23:56.718Z,99.90
2018-07-22T09:26:24.716Z,99.90
2018-07-22T09:28:52.674Z,99.90
2018-07-22T09:31:20.677Z,99.90
2018-07-22T09:33:48.655Z,99.90
2018-07-22T09:39:08.894Z,99.90
2018-07-22T09:41:36.873Z,99.90
2018-07-22T09:44:04.865Z,99.90
2018-07-22T09:46:32.879Z,99.90
2018-07-22T09:51:28.895Z,99.90
2018-07-22T09:53:56.879Z,99.90
2018-07-22T09:56:24.852Z,99.90
2018-07-22T09:58:52.862Z,99.90
2018-07-22T10:01:20.849Z,99.90
2018-07-22T10:03:48.874Z,99.90
2018-07-22T10:06:16.870Z,99.90
2018-07-22T10:08:44.848Z,99.90
2018-07-22T10:11:12.943Z,99.90
2018-07-22T10:16:08.788Z,99.90
2018-07-22T10:18:36.845Z,99.90
2018-07-22T10:21:04.948Z,99.90
2018-07-22T10:23:32.955Z,99.80
2018-07-22T10:26:00.937Z,99.20
2018-07-22T10:28:28.974Z,99.40
2018-07-22T10:30:56.925Z,98.20
2018-07-22T10:33:24.935Z,97.20
2018-07-22T10:35:52.967Z,96.70
2018-07-22T10:38:20.929Z,97.60
2018-07-22T10:40:48.964Z,96.60
2018-07-22T10:43:16.949Z,96.10
2018-07-22T10:45:44.876Z,95.40
2018-07-22T10:48:13.171Z,95.20
2018-07-22T10:50:41.228Z,95.40
2018-07-22T10:53:09.284Z,99.90
2018-07-22T10:55:37.227Z,94.10
2018-07-22T10:58:05.407Z,93.30
2018-07-22T11:00:35.052Z,93.70
2018-07-22T11:03:04.733Z,94.40
2018-07-22T11:05:32.779Z,93.90
2018-07-22T11:08:00.817Z,93.60
2018-07-22T11:10:28.786Z,92.60
2018-07-22T11:12:56.716Z,93.10
2018-07-22T11:15:24.688Z,92.90
2018-07-22T11:17:52.705Z,92.70
2018-07-22T11:22:48.623Z,92.40
2018-07-22T11:25:16.601Z,91.60
2018-07-22T11:30:12.565Z,90.70
2018-07-22T11:32:40.692Z,90.90
2018-07-22T11:35:08.688Z,90.70
2018-07-22T11:37:36.722Z,91.50
2018-07-22T11:40:04.903Z,91.70
2018-07-22T11:42:32.888Z,91.50
2018-07-22T11:45:00.834Z,91.20
2018-07-22T11:47:28.859Z,90.00
2018-07-22T11:49:56.815Z,94.90
2018-07-22T11:52:24.769Z,90.30
2018-07-22T11:59:48.755Z,90.10
2018-07-22T12:02:16.955Z,88.00
2018-07-22T12:07:12.890Z,86.00
2018-07-22T12:12:08.901Z,83.80
2018-07-22T12:17:04.742Z,83.30
2018-07-22T12:19:32.664Z,81.30
2018-07-22T12:22:00.584Z,83.80
2018-07-22T12:26:56.472Z,84.60
2018-07-22T12:29:24.439Z,84.20
2018-07-22T12:31:52.362Z,83.70
2018-07-22T12:34:20.407Z,82.30
2018-07-22T12:41:44.212Z,78.90
2018-07-22T12:44:12.136Z,79.00
2018-07-22T12:46:40.057Z,78.30
2018-07-22T12:51:36.194Z,78.30
2018-07-22T12:56:32.151Z,78.40
2018-07-22T13:01:28.722Z,78.30
2018-07-22T13:03:56.676Z,78.10
2018-07-22T13:06:24.684Z,77.90
2018-07-22T13:08:52.645Z,77.70
2018-07-22T13:11:20.616Z,88.50
2018-07-22T13:13:48.682Z,87.70
2018-07-22T13:16:16.685Z,88.30
2018-07-22T13:18:44.707Z,88.80
2018-07-22T13:21:12.625Z,78.20
2018-07-22T13:23:40.542Z,78.50
2018-07-22T13:26:08.520Z,77.20
2018-07-22T13:28:36.454Z,76.70
2018-07-22T13:31:04.451Z,76.20
2018-07-22T13:33:32.412Z,76.70
2018-07-22T13:36:00.349Z,76.90
2018-07-22T13:40:56.234Z,76.80
2018-07-22T13:43:24.216Z,77.50
2018-07-22T13:45:52.316Z,81.50
2018-07-22T13:50:48.269Z,82.50
2018-07-22T13:55:44.136Z,81.80
2018-07-22T13:58:12.062Z,80.90
2018-07-22T14:05:36.224Z,83.20
2018-07-22T14:08:04.321Z,81.90
2018-07-22T14:10:32.242Z,81.70
2018-07-22T14:13:00.187Z,81.10
2018-07-22T14:15:28.207Z,81.20
2018-07-22T14:17:56.194Z,80.60
2018-07-22T14:22:52.021Z,81.40
2018-07-22T14:25:20.081Z,78.60
2018-07-22T14:27:48.085Z,89.90
2018-07-22T14:30:16.014Z,80.40
2018-07-22T14:32:43.993Z,89.40
2018-07-22T14:35:11.965Z,79.70
2018-07-22T14:37:39.875Z,89.60
2018-07-22T14:40:07.851Z,79.80
2018-07-22T14:42:35.787Z,80.00
2018-07-22T14:47:32.896Z,79.00
2018-07-22T14:50:00.833Z,78.70
2018-07-22T14:52:28.821Z,78.10
2018-07-22T14:54:56.782Z,87.30
2018-07-22T14:57:24.735Z,77.30
2018-07-22T14:59:52.666Z,76.30
2018-07-22T15:02:20.590Z,76.10
2018-07-22T15:04:48.555Z,75.90
2018-07-22T15:07:16.477Z,75.30
2018-07-22T15:12:12.369Z,76.80
2018-07-22T15:14:40.328Z,88.50
2018-07-22T15:17:08.280Z,77.70
2018-07-22T15:19:36.221Z,77.50
2018-07-22T15:27:00.080Z,78.20
2018-07-22T15:29:28.095Z,78.30
2018-07-22T15:31:55.983Z,78.20
2018-07-22T15:34:23.938Z,77.00
2018-07-22T15:39:19.847Z,77.50
2018-07-22T15:41:47.826Z,78.30
2018-07-22T15:46:43.769Z,78.20
2018-07-22T15:51:39.622Z,77.60
2018-07-22T15:54:07.605Z,77.60
2018-07-22T15:56:35.572Z,78.10
2018-07-22T15:59:03.601Z,78.50
2018-07-22T16:01:31.546Z,78.80
2018-07-22T16:03:59.679Z,79.30
2018-07-22T16:06:27.639Z,78.40
2018-07-22T16:08:55.581Z,78.50
2018-07-22T16:13:51.745Z,78.70
2018-07-22T16:16:19.692Z,78.70
2018-07-22T16:18:47.690Z,79.90
2018-07-22T16:21:15.653Z,80.40
2018-07-22T16:23:43.626Z,82.40
2018-07-22T16:26:11.663Z,85.20
2018-07-22T16:31:07.586Z,86.20
2018-07-22T16:33:35.604Z,88.10
2018-07-22T16:36:03.596Z,90.50
2018-07-22T16:38:31.541Z,96.80
2018-07-22T16:40:59.515Z,92.50
2018-07-22T16:43:27.496Z,94.60
2018-07-22T16:45:55.445Z,95.80
2018-07-22T16:48:23.686Z,96.20
2018-07-22T16:53:19.646Z,96.30
2018-07-22T16:55:48.622Z,96.80
2018-07-22T16:58:16.567Z,99.90
2018-07-22T17:03:12.661Z,99.90
2018-07-22T17:05:40.742Z,99.90
2018-07-22T17:08:08.716Z,99.90
2018-07-22T17:10:36.672Z,99.90
2018-07-22T17:13:04.892Z,99.90
2018-07-22T17:15:32.839Z,99.90
2018-07-22T17:18:00.806Z,99.90
2018-07-22T17:20:28.871Z,99.90
2018-07-22T17:22:56.773Z,99.90
2018-07-22T17:25:24.796Z,99.90
2018-07-22T17:27:52.746Z,99.90
2018-07-22T17:30:20.744Z,99.90
2018-07-22T17:32:48.756Z,99.90
2018-07-22T17:35:16.877Z,99.90
2018-07-22T17:37:44.898Z,99.90
2018-07-22T17:40:24.996Z,99.90
2018-07-22T17:42:54.619Z,99.90
2018-07-22T17:45:25.394Z,99.90
2018-07-22T17:47:53.535Z,99.90
2018-07-22T17:50:21.595Z,99.90
2018-07-22T17:52:49.622Z,99.90
2018-07-22T17:55:17.768Z,99.90
2018-07-22T17:57:45.754Z,99.90
2018-07-22T18:00:13.947Z,99.90
2018-07-22T18:02:51.204Z,99.90
2018-07-22T18:07:47.832Z,99.90
2018-07-22T18:10:15.974Z,99.90
2018-07-22T18:12:43.977Z,99.90
2018-07-22T18:22:36.402Z,99.90
2018-07-22T18:25:04.529Z,99.90
2018-07-22T18:27:32.548Z,99.90
2018-07-22T18:30:00.531Z,99.90
2018-07-22T18:32:28.574Z,99.90
2018-07-22T18:34:56.584Z,99.90
2018-07-22T18:37:24.696Z,99.90
2018-07-22T18:39:52.616Z,99.90
2018-07-22T18:42:20.640Z,99.90
2018-07-22T18:44:48.708Z,99.90
2018-07-22T18:49:44.712Z,99.90
2018-07-22T18:52:12.882Z,99.90
2018-07-22T18:54:40.984Z,99.90
2018-07-22T18:57:09.159Z,99.90
2018-07-22T19:02:05.328Z,99.90
2018-07-22T19:04:33.328Z,99.90
2018-07-22T19:07:01.380Z,99.90
2018-07-22T19:09:29.452Z,99.90
2018-07-22T19:14:25.497Z,99.90
2018-07-22T19:16:53.542Z,99.90
2018-07-22T19:19:21.658Z,99.90
2018-07-22T19:21:49.685Z,99.90
2018-07-22T19:24:17.756Z,99.90
2018-07-22T19:26:45.816Z,99.90
2018-07-22T19:29:13.838Z,99.90
2018-07-22T19:31:42.685Z,99.90
2018-07-22T19:34:10.755Z,99.90
2018-07-22T19:36:38.946Z,99.90
2018-07-22T19:39:08.231Z,99.90
2018-07-22T19:41:37.770Z,99.90
2018-07-22T19:44:06.436Z,99.90
2018-07-22T19:46:34.512Z,99.90
2018-07-22T19:49:03.601Z,99.90
2018-07-22T19:51:31.653Z,99.90
2018-07-22T19:53:59.662Z,99.90
2018-07-22T19:58:55.713Z,99.90
2018-07-22T20:01:23.696Z,99.90
2018-07-22T20:03:51.820Z,99.90
2018-07-22T20:06:19.884Z,99.90
2018-07-22T20:08:47.901Z,99.90
2018-07-22T20:18:40.097Z,99.90
2018-07-22T20:21:08.116Z,99.90
2018-07-22T20:23:36.517Z,99.90
2018-07-22T20:26:04.712Z,99.90
2018-07-22T20:28:32.766Z,99.90
2018-07-22T20:33:28.837Z,99.90
2018-07-22T20:35:56.889Z,99.90
2018-07-22T20:38:24.931Z,99.90
2018-07-22T20:40:52.953Z,99.90
2018-07-22T20:43:20.981Z,99.90
2018-07-22T20:45:49.007Z,99.90
2018-07-22T20:48:17.063Z,99.90
2018-07-22T20:50:45.049Z,99.90
2018-07-22T20:53:13.115Z,99.90
2018-07-22T20:55:41.297Z,99.90
2018-07-22T20:58:09.292Z,99.90
2018-07-22T21:00:37.340Z,99.90
2018-07-22T21:03:05.464Z,99.90
2018-07-22T21:05:33.774Z,99.90
2018-07-22T21:08:03.038Z,99.90
2018-07-22T21:10:30.990Z,99.90
2018-07-22T21:13:25.607Z,99.90
2018-07-22T21:15:53.806Z,99.90
2018-07-22T21:18:22.077Z,99.90
2018-07-22T21:20:51.235Z,99.90
2018-07-22T21:23:19.200Z,99.90
2018-07-22T21:25:47.199Z,99.90
2018-07-22T21:28:16.513Z,99.90
2018-07-22T21:30:45.338Z,99.90
2018-07-22T21:33:13.371Z,99.90
2018-07-22T21:35:41.381Z,99.90
2018-07-22T21:38:09.442Z,99.90
2018-07-22T21:40:37.883Z,99.90
2018-07-22T21:43:06.060Z,99.90
2018-07-22T21:45:34.647Z,99.90
2018-07-22T21:48:02.722Z,99.90
2018-07-22T21:50:30.828Z,99.90
2018-07-22T21:52:58.825Z,99.90
2018-07-22T21:55:26.986Z,99.90
2018-07-22T22:00:43.626Z,99.90
2018-07-22T22:03:11.920Z,99.90
2018-07-22T22:05:44.930Z,99.90
2018-07-22T22:08:15.925Z,99.90
2018-07-22T22:10:49.399Z,99.90
2018-07-22T22:13:23.825Z,99.90
2018-07-22T22:18:29.485Z,99.90
2018-07-22T22:21:00.512Z,99.90
2018-07-22T22:23:30.302Z,99.90
2018-07-22T22:26:00.524Z,99.90
2018-07-22T22:30:59.899Z,99.90
2018-07-22T22:33:29.213Z,99.90
2018-07-22T22:35:59.738Z,99.90
2018-07-22T22:38:29.298Z,99.90
2018-07-22T22:41:01.448Z,99.90
2018-07-22T22:43:31.746Z,99.90
2018-07-22T22:45:59.936Z,99.90
2018-07-22T22:48:28.761Z,99.90
2018-07-22T22:50:57.790Z,99.90
2018-07-22T22:53:26.662Z,99.90
2018-07-22T22:55:55.333Z,99.90
2018-07-22T22:59:21.034Z,99.90
2018-07-22T23:04:24.717Z,99.90
2018-07-22T23:06:59.461Z,99.90
2018-07-22T23:09:33.665Z,99.90
2018-07-22T23:12:07.589Z,99.90
2018-07-22T23:14:43.191Z,99.90
2018-07-22T23:17:12.746Z,99.90
2018-07-22T23:19:41.899Z,99.90
2018-07-22T23:22:11.335Z,99.90
2018-07-22T23:24:41.772Z,99.90
2018-07-22T23:30:00.594Z,99.90
2018-07-22T23:32:29.784Z,99.90
2018-07-22T23:34:58.801Z,99.90
2018-07-22T23:37:28.636Z,99.90
2018-07-22T23:40:00.181Z,99.90
2018-07-22T23:42:30.044Z,99.90
2018-07-22T23:45:00.224Z,99.90
2018-07-22T23:47:30.278Z,99.90
2018-07-22T23:50:00.181Z,99.90
2018-07-22T23:52:30.161Z,99.90
2018-07-22T23:54:59.939Z,99.90
2018-07-22T23:57:32.394Z,99.90
